createdAt,value
2018-07-26T00:00:36.768Z,20.06
2018-07-26T00:03:05.798Z,20.04
2018-07-26T00:05:35.319Z,20.06
2018-07-26T00:08:04.337Z,20.08
2018-07-26T00:10:33.403Z,20.07
2018-07-26T00:13:02.524Z,20.07
2018-07-26T00:15:31.495Z,20.07
2018-07-26T00:18:00.471Z,20.07
2018-07-26T00:20:29.432Z,20.05
2018-07-26T00:22:58.462Z,20.03
2018-07-26T00:25:27.432Z,19.96
2018-07-26T00:27:56.395Z,19.93
2018-07-26T00:30:25.397Z,19.89
2018-07-26T00:32:54.460Z,19.87
2018-07-26T00:35:23.530Z,19.89
2018-07-26T00:37:52.480Z,19.89
2018-07-26T00:40:21.523Z,19.90
2018-07-26T00:42:50.472Z,19.88
2018-07-26T00:45:19.436Z,19.87
2018-07-26T00:47:48.423Z,19.87
2018-07-26T00:50:17.389Z,19.87
2018-07-26T00:52:46.393Z,19.88
2018-07-26T00:55:15.371Z,19.83
2018-07-26T00:57:44.439Z,19.82
2018-07-26T01:00:13.450Z,19.84
2018-07-26T01:02:42.412Z,19.81
2018-07-26T01:05:11.461Z,19.80
2018-07-26T01:07:40.484Z,19.79
2018-07-26T01:10:09.772Z,19.80
2018-07-26T01:12:38.811Z,19.79
2018-07-26T01:15:08.112Z,19.80
2018-07-26T01:17:37.102Z,19.82
2018-07-26T01:20:06.459Z,19.79
2018-07-26T01:22:35.453Z,19.74
2018-07-26T01:25:04.468Z,19.76
2018-07-26T01:27:33.491Z,19.73
2018-07-26T01:30:02.485Z,19.71
2018-07-26T01:32:31.529Z,19.71
2018-07-26T01:35:00.556Z,19.71
2018-07-26T01:37:29.555Z,19.69
2018-07-26T01:39:58.616Z,19.67
2018-07-26T01:42:27.732Z,19.66
2018-07-26T01:44:56.756Z,19.67
2018-07-26T01:47:25.776Z,19.69
2018-07-26T01:49:54.820Z,19.72
2018-07-26T01:52:23.860Z,19.72
2018-07-26T01:54:52.895Z,19.73
2018-07-26T01:57:21.895Z,19.74
2018-07-26T01:59:50.928Z,19.76
2018-07-26T02:02:19.950Z,19.79
2018-07-26T02:04:48.969Z,19.81
2018-07-26T02:07:18.019Z,19.83
2018-07-26T02:09:47.015Z,19.84
2018-07-26T02:12:16.088Z,19.84
2018-07-26T02:14:45.124Z,19.83
2018-07-26T02:17:14.123Z,19.83
2018-07-26T02:19:43.150Z,19.84
2018-07-26T02:22:12.300Z,19.81
2018-07-26T02:24:41.295Z,19.78
2018-07-26T02:27:10.268Z,19.73
2018-07-26T02:29:39.320Z,19.70
2018-07-26T02:32:08.380Z,19.73
2018-07-26T02:34:37.419Z,19.76
2018-07-26T02:37:06.400Z,19.74
2018-07-26T02:39:35.486Z,19.69
2018-07-26T02:42:04.603Z,19.69
2018-07-26T02:44:33.572Z,19.66
2018-07-26T02:47:02.556Z,19.63
2018-07-26T02:49:31.515Z,19.64
2018-07-26T02:52:00.555Z,19.59
2018-07-26T02:54:29.529Z,19.62
2018-07-26T02:56:58.494Z,19.60
2018-07-26T02:59:27.474Z,19.59
2018-07-26T03:01:56.437Z,19.58
2018-07-26T03:04:25.725Z,19.55
2018-07-26T03:06:55.071Z,19.50
2018-07-26T03:09:24.364Z,19.47
2018-07-26T03:11:53.631Z,19.49
2018-07-26T03:14:23.347Z,19.48
2018-07-26T03:16:52.656Z,19.47
2018-07-26T03:19:22.069Z,19.44
2018-07-26T03:21:51.339Z,19.45
2018-07-26T03:24:20.543Z,19.44
2018-07-26T03:26:49.840Z,19.48
2018-07-26T03:29:19.097Z,19.44
2018-07-26T03:31:48.402Z,19.45
2018-07-26T03:34:17.724Z,19.43
2018-07-26T03:36:47.028Z,19.45
2018-07-26T03:39:16.032Z,19.41
2018-07-26T03:41:44.998Z,19.35
2018-07-26T03:44:14.580Z,19.29
2018-07-26T03:46:43.851Z,19.29
2018-07-26T03:49:13.260Z,19.33
2018-07-26T03:51:42.332Z,19.34
2018-07-26T03:54:11.297Z,19.40
2018-07-26T03:56:40.288Z,19.47
2018-07-26T03:59:09.356Z,19.48
2018-07-26T04:01:38.769Z,19.54
2018-07-26T04:04:09.059Z,19.59
2018-07-26T04:06:38.267Z,19.64
2018-07-26T04:09:13.339Z,19.64
2018-07-26T04:11:43.801Z,19.66
2018-07-26T04:14:13.160Z,19.68
2018-07-26T04:16:42.527Z,19.74
2018-07-26T04:19:12.503Z,19.81
2018-07-26T04:21:42.122Z,19.86
2018-07-26T04:24:11.421Z,19.96
2018-07-26T04:26:40.782Z,20.06
2018-07-26T04:29:10.100Z,20.16
2018-07-26T04:31:39.136Z,20.24
2018-07-26T04:34:08.116Z,20.36
2018-07-26T04:36:37.546Z,20.52
2018-07-26T04:39:09.176Z,20.73
2018-07-26T04:41:38.313Z,20.87
2018-07-26T04:44:07.650Z,20.98
2018-07-26T04:46:36.966Z,21.10
2018-07-26T04:49:06.301Z,21.22
2018-07-26T04:51:35.521Z,21.28
2018-07-26T04:54:04.528Z,21.33
2018-07-26T04:56:33.565Z,21.40
2018-07-26T04:59:02.552Z,21.51
2018-07-26T05:01:31.532Z,21.56
2018-07-26T05:04:00.735Z,21.66
2018-07-26T05:06:29.691Z,21.73
2018-07-26T05:08:58.664Z,21.84
2018-07-26T05:11:28.105Z,21.94
2018-07-26T05:13:57.319Z,21.99
2018-07-26T05:16:26.491Z,22.04
2018-07-26T05:18:55.672Z,22.05
2018-07-26T05:21:24.960Z,22.07
2018-07-26T05:23:54.276Z,22.09
2018-07-26T05:26:23.636Z,22.03
2018-07-26T05:28:52.693Z,21.96
2018-07-26T05:31:21.966Z,21.97
2018-07-26T05:33:51.024Z,22.03
2018-07-26T05:36:20.304Z,22.07
2018-07-26T05:38:49.483Z,22.14
2018-07-26T05:41:18.679Z,22.17
2018-07-26T05:43:47.832Z,22.13
2018-07-26T05:46:17.155Z,22.13
2018-07-26T05:48:46.356Z,22.20
2018-07-26T05:51:15.653Z,22.33
2018-07-26T05:53:44.700Z,22.46
2018-07-26T05:56:14.150Z,22.62
2018-07-26T05:58:43.509Z,22.76
2018-07-26T06:01:14.039Z,22.98
2018-07-26T06:03:43.086Z,23.16
2018-07-26T06:06:12.452Z,23.48
2018-07-26T06:08:41.641Z,23.81
2018-07-26T06:11:10.889Z,23.99
2018-07-26T06:13:40.139Z,24.22
2018-07-26T06:16:09.409Z,24.27
2018-07-26T06:18:38.695Z,24.40
2018-07-26T06:21:08.392Z,24.60
2018-07-26T06:23:37.795Z,24.73
2018-07-26T06:26:07.105Z,24.81
2018-07-26T06:28:36.601Z,24.82
2018-07-26T06:31:05.873Z,24.71
2018-07-26T06:33:34.918Z,24.77
2018-07-26T06:36:03.897Z,24.78
2018-07-26T06:38:33.044Z,24.75
2018-07-26T06:41:02.075Z,24.78
2018-07-26T06:43:31.042Z,24.72
2018-07-26T06:46:00.952Z,24.77
2018-07-26T06:48:30.024Z,24.85
2018-07-26T06:50:59.002Z,25.00
2018-07-26T06:53:28.008Z,25.19
2018-07-26T06:55:57.033Z,25.31
2018-07-26T06:58:26.181Z,25.51
2018-07-26T07:00:55.317Z,25.68
2018-07-26T07:03:24.351Z,25.99
2018-07-26T07:05:53.396Z,26.45
2018-07-26T07:08:22.471Z,26.92
2018-07-26T07:10:51.536Z,27.41
2018-07-26T07:13:20.610Z,27.79
2018-07-26T07:15:49.685Z,28.03
2018-07-26T07:18:18.899Z,28.16
2018-07-26T07:20:47.951Z,28.43
2018-07-26T07:23:16.935Z,28.54
2018-07-26T07:25:45.997Z,28.74
2018-07-26T07:28:15.049Z,28.78
2018-07-26T07:30:44.007Z,28.55
2018-07-26T07:33:13.091Z,28.69
2018-07-26T07:35:42.056Z,28.69
2018-07-26T07:38:11.101Z,28.73
2018-07-26T07:40:40.093Z,28.79
2018-07-26T07:43:09.071Z,28.88
2018-07-26T07:45:38.172Z,28.98
2018-07-26T07:48:07.338Z,29.49
2018-07-26T07:50:36.415Z,29.86
2018-07-26T07:53:05.542Z,30.24
2018-07-26T07:55:34.605Z,30.32
2018-07-26T07:58:03.615Z,30.38
2018-07-26T08:00:32.633Z,30.69
2018-07-26T08:03:01.970Z,30.57
2018-07-26T08:05:31.267Z,30.49
2018-07-26T08:08:00.375Z,30.46
2018-07-26T08:10:29.571Z,30.51
2018-07-26T08:12:58.575Z,30.77
2018-07-26T08:15:27.539Z,30.79
2018-07-26T08:17:56.576Z,30.82
2018-07-26T08:20:25.563Z,30.84
2018-07-26T08:22:54.598Z,30.81
2018-07-26T08:25:23.635Z,30.74
2018-07-26T08:27:52.607Z,31.22
2018-07-26T08:30:21.697Z,31.81
2018-07-26T08:32:50.780Z,32.10
2018-07-26T08:35:19.840Z,32.61
2018-07-26T08:37:48.847Z,32.60
2018-07-26T08:40:17.807Z,32.89
2018-07-26T08:42:46.884Z,33.09
2018-07-26T08:45:15.872Z,33.43
2018-07-26T08:47:44.996Z,33.64
2018-07-26T08:50:14.000Z,34.04
2018-07-26T08:52:43.015Z,33.88
2018-07-26T08:55:12.040Z,33.90
2018-07-26T08:57:41.026Z,33.89
2018-07-26T09:00:10.421Z,33.89
2018-07-26T09:02:39.409Z,33.96
2018-07-26T09:05:08.527Z,33.94
2018-07-26T09:07:37.523Z,33.85
2018-07-26T09:10:06.508Z,33.69
2018-07-26T09:12:35.624Z,33.56
2018-07-26T09:15:04.770Z,33.21
2018-07-26T09:17:33.837Z,32.89
2018-07-26T09:20:02.893Z,32.83
2018-07-26T09:22:32.006Z,32.90
2018-07-26T09:25:00.965Z,33.01
2018-07-26T09:27:29.944Z,33.26
2018-07-26T09:29:58.980Z,33.44
2018-07-26T09:32:27.967Z,33.82
2018-07-26T09:34:57.066Z,33.87
2018-07-26T09:37:26.126Z,33.28
2018-07-26T09:39:55.183Z,32.97
2018-07-26T09:42:24.152Z,33.46
2018-07-26T09:44:53.263Z,33.97
2018-07-26T09:47:22.340Z,34.14
2018-07-26T09:49:51.308Z,34.14
2018-07-26T09:52:20.296Z,33.84
2018-07-26T09:54:49.392Z,33.42
2018-07-26T09:57:18.485Z,33.18
2018-07-26T09:59:47.839Z,32.39
2018-07-26T10:02:16.873Z,31.86
2018-07-26T10:04:45.957Z,31.44
2018-07-26T10:07:14.936Z,31.72
2018-07-26T10:09:44.296Z,32.12
2018-07-26T10:12:13.552Z,32.57
2018-07-26T10:14:42.748Z,32.73
2018-07-26T10:17:12.023Z,32.79
2018-07-26T10:19:41.071Z,32.46
2018-07-26T10:22:10.136Z,32.42
2018-07-26T10:24:39.282Z,32.08
2018-07-26T10:27:08.433Z,31.58
2018-07-26T10:29:37.406Z,31.74
2018-07-26T10:32:06.554Z,32.04
2018-07-26T10:34:35.531Z,32.29
2018-07-26T10:37:04.541Z,32.25
2018-07-26T10:39:33.503Z,31.75
2018-07-26T10:42:02.483Z,31.13
2018-07-26T10:44:31.602Z,31.22
2018-07-26T10:47:00.753Z,31.16
2018-07-26T10:49:29.861Z,31.16
2018-07-26T10:51:58.848Z,31.44
2018-07-26T10:54:27.828Z,31.67
2018-07-26T10:56:57.076Z,31.80
2018-07-26T10:59:26.046Z,32.08
2018-07-26T11:01:55.103Z,32.24
2018-07-26T11:04:24.156Z,32.32
2018-07-26T11:06:53.221Z,32.21
2018-07-26T11:09:22.352Z,32.44
2018-07-26T11:11:51.464Z,32.42
2018-07-26T11:14:21.069Z,32.42
2018-07-26T11:16:50.112Z,32.58
2018-07-26T11:19:19.157Z,32.10
2018-07-26T11:21:48.200Z,31.63
2018-07-26T11:24:17.426Z,31.45
2018-07-26T11:26:46.427Z,31.27
2018-07-26T11:29:15.391Z,31.50
2018-07-26T11:31:44.450Z,31.64
2018-07-26T11:34:13.427Z,31.33
2018-07-26T11:36:42.468Z,31.47
2018-07-26T11:39:12.103Z,31.68
2018-07-26T11:41:41.113Z,31.86
2018-07-26T11:44:10.121Z,31.89
2018-07-26T11:46:39.240Z,32.07
2018-07-26T11:49:08.270Z,32.17
2018-07-26T11:51:37.296Z,32.15
2018-07-26T11:54:06.387Z,32.25
2018-07-26T11:56:35.368Z,32.21
2018-07-26T11:59:04.424Z,32.15
2018-07-26T12:01:33.486Z,32.33
2018-07-26T12:04:02.447Z,32.65
2018-07-26T12:06:31.515Z,32.45
2018-07-26T12:09:00.516Z,32.01
2018-07-26T12:11:29.638Z,32.06
2018-07-26T12:13:58.676Z,31.95
2018-07-26T12:16:27.655Z,31.93
2018-07-26T12:18:56.633Z,31.88
2018-07-26T12:21:25.591Z,31.94
2018-07-26T12:23:54.602Z,32.00
2018-07-26T12:26:23.632Z,32.10
2018-07-26T12:28:52.687Z,32.16
2018-07-26T12:31:21.717Z,32.18
2018-07-26T12:33:50.677Z,31.91
2018-07-26T12:36:19.660Z,31.59
2018-07-26T12:38:48.696Z,31.29
2018-07-26T12:41:17.845Z,31.27
2018-07-26T12:43:46.828Z,31.39
2018-07-26T12:46:15.875Z,31.35
2018-07-26T12:48:44.952Z,31.37
2018-07-26T12:51:14.012Z,31.62
2018-07-26T12:53:43.048Z,31.92
2018-07-26T12:56:12.134Z,32.21
2018-07-26T12:58:41.120Z,32.10
2018-07-26T13:01:10.081Z,32.07
2018-07-26T13:03:39.125Z,31.84
2018-07-26T13:06:08.234Z,31.59
2018-07-26T13:08:37.188Z,31.36
2018-07-26T13:11:06.339Z,31.28
2018-07-26T13:13:35.412Z,31.42
2018-07-26T13:16:04.488Z,31.44
2018-07-26T13:18:33.510Z,31.52
2018-07-26T13:21:02.726Z,31.77
2018-07-26T13:23:31.817Z,32.01
2018-07-26T13:26:00.793Z,32.18
2018-07-26T13:28:29.804Z,32.44
2018-07-26T13:30:58.837Z,32.56
2018-07-26T13:33:27.877Z,32.54
2018-07-26T13:35:56.862Z,32.42
2018-07-26T13:38:25.852Z,32.47
2018-07-26T13:40:54.850Z,32.38
2018-07-26T13:43:23.968Z,32.26
2018-07-26T13:45:52.997Z,32.14
2018-07-26T13:48:21.960Z,32.12
2018-07-26T13:50:50.939Z,32.06
2018-07-26T13:53:19.912Z,31.69
2018-07-26T13:55:48.966Z,31.41
2018-07-26T13:58:17.990Z,31.31
2018-07-26T14:00:46.984Z,31.27
2018-07-26T14:03:16.013Z,31.17
2018-07-26T14:05:45.008Z,31.04
2018-07-26T14:08:13.985Z,30.70
2018-07-26T14:10:43.250Z,30.33
2018-07-26T14:13:12.256Z,30.09
2018-07-26T14:15:41.385Z,30.06
2018-07-26T14:18:10.448Z,30.00
2018-07-26T14:20:39.494Z,29.91
2018-07-26T14:23:12.525Z,29.97
2018-07-26T14:25:41.520Z,30.17
2018-07-26T14:28:10.547Z,30.37
2018-07-26T14:30:39.606Z,30.44
2018-07-26T14:33:09.116Z,30.32
2018-07-26T14:35:38.228Z,30.02
2018-07-26T14:38:07.310Z,29.83
2018-07-26T14:40:36.283Z,29.57
2018-07-26T14:43:05.360Z,29.45
2018-07-26T14:45:34.476Z,29.35
2018-07-26T14:48:03.625Z,29.30
2018-07-26T14:50:32.685Z,29.21
2018-07-26T14:53:01.725Z,29.14
2018-07-26T14:55:30.984Z,29.10
2018-07-26T14:58:00.289Z,29.02
2018-07-26T15:00:29.651Z,28.91
2018-07-26T15:02:58.775Z,28.75
2018-07-26T15:05:27.755Z,28.66
2018-07-26T15:07:56.869Z,28.55
2018-07-26T15:10:25.912Z,28.41
2018-07-26T15:12:54.892Z,28.25
2018-07-26T15:15:23.989Z,28.04
2018-07-26T15:17:53.016Z,27.88
2018-07-26T15:20:21.994Z,27.75
2018-07-26T15:22:50.968Z,27.68
2018-07-26T15:25:24.987Z,27.62
2018-07-26T15:27:54.968Z,27.59
2018-07-26T15:30:24.069Z,27.53
2018-07-26T15:32:54.098Z,27.52
2018-07-26T15:35:23.120Z,27.58
2018-07-26T15:37:52.426Z,27.70
2018-07-26T15:40:21.284Z,27.78
2018-07-26T15:42:50.288Z,27.79
2018-07-26T15:45:19.296Z,27.77
2018-07-26T15:47:48.269Z,27.76
2018-07-26T15:50:17.275Z,27.73
2018-07-26T15:52:46.353Z,27.73
2018-07-26T15:55:15.441Z,27.68
2018-07-26T15:57:44.520Z,27.63
2018-07-26T16:00:13.541Z,27.58
2018-07-26T16:02:42.547Z,27.47
2018-07-26T16:05:11.572Z,27.37
2018-07-26T16:07:40.549Z,27.27
2018-07-26T16:10:10.108Z,27.10
2018-07-26T16:12:39.504Z,26.90
2018-07-26T16:15:10.720Z,26.63
2018-07-26T16:17:39.977Z,26.55
2018-07-26T16:20:10.212Z,26.50
2018-07-26T16:22:39.224Z,26.44
2018-07-26T16:25:09.748Z,26.38
2018-07-26T16:27:39.021Z,26.40
2018-07-26T16:30:11.276Z,26.44
2018-07-26T16:32:40.343Z,26.39
2018-07-26T16:35:09.651Z,26.35
2018-07-26T16:37:38.675Z,26.26
2018-07-26T16:40:07.814Z,26.25
2018-07-26T16:42:36.746Z,26.27
2018-07-26T16:45:06.695Z,26.27
2018-07-26T16:47:35.748Z,26.30
2018-07-26T16:50:05.501Z,26.27
2018-07-26T16:52:35.001Z,26.20
2018-07-26T16:55:04.175Z,26.18
2018-07-26T16:57:33.168Z,26.08
2018-07-26T17:00:02.293Z,26.01
2018-07-26T17:02:31.328Z,25.90
2018-07-26T17:05:00.429Z,25.78
2018-07-26T17:07:29.440Z,25.69
2018-07-26T17:09:58.480Z,25.58
2018-07-26T17:12:27.616Z,25.47
2018-07-26T17:14:56.589Z,25.40
2018-07-26T17:17:25.609Z,25.30
2018-07-26T17:19:54.612Z,25.23
2018-07-26T17:22:23.645Z,25.22
2018-07-26T17:24:52.801Z,25.22
2018-07-26T17:27:21.846Z,25.18
2018-07-26T17:29:51.112Z,25.16
2018-07-26T17:32:20.182Z,25.09
2018-07-26T17:34:49.172Z,25.03
2018-07-26T17:37:18.235Z,24.99
2018-07-26T17:39:47.224Z,24.91
2018-07-26T17:42:16.476Z,24.86
2018-07-26T17:44:45.480Z,24.88
2018-07-26T17:47:14.455Z,24.81
2018-07-26T17:49:43.507Z,24.79
2018-07-26T17:52:12.780Z,24.76
2018-07-26T17:54:42.008Z,24.69
2018-07-26T17:57:11.193Z,24.60
2018-07-26T17:59:40.472Z,24.51
2018-07-26T18:02:09.485Z,24.46
2018-07-26T18:04:38.577Z,24.39
2018-07-26T18:07:07.633Z,24.31
2018-07-26T18:09:36.612Z,24.30
2018-07-26T18:12:05.689Z,24.19
2018-07-26T18:14:34.689Z,24.16
2018-07-26T18:17:03.740Z,24.14
2018-07-26T18:19:32.736Z,24.13
2018-07-26T18:22:01.793Z,24.13
2018-07-26T18:24:30.884Z,24.16
2018-07-26T18:26:59.865Z,24.09
2018-07-26T18:29:28.857Z,24.09
2018-07-26T18:31:57.891Z,24.05
2018-07-26T18:34:26.988Z,24.03
2018-07-26T18:36:56.020Z,24.01
2018-07-26T18:39:25.004Z,24.03
2018-07-26T18:41:54.039Z,24.04
2018-07-26T18:44:23.077Z,24.06
2018-07-26T18:46:52.089Z,24.05
2018-07-26T18:49:21.088Z,24.08
2018-07-26T18:51:50.091Z,24.11
2018-07-26T18:54:19.064Z,24.09
2018-07-26T18:56:48.088Z,23.99
2018-07-26T18:59:17.138Z,23.93
2018-07-26T19:01:46.180Z,23.88
2018-07-26T19:04:15.162Z,23.79
2018-07-26T19:06:44.189Z,23.64
2018-07-26T19:09:13.655Z,23.51
2018-07-26T19:11:43.143Z,23.43
2018-07-26T19:14:12.193Z,23.38
2018-07-26T19:16:41.357Z,23.38
2018-07-26T19:19:10.396Z,23.33
2018-07-26T19:21:39.458Z,23.27
2018-07-26T19:24:08.493Z,23.29
2018-07-26T19:26:37.488Z,23.25
2018-07-26T19:29:07.078Z,23.13
2018-07-26T19:31:36.144Z,22.98
2018-07-26T19:34:05.209Z,22.83
2018-07-26T19:36:34.224Z,22.79
2018-07-26T19:39:03.296Z,22.71
2018-07-26T19:41:32.351Z,22.67
2018-07-26T19:44:01.418Z,22.61
2018-07-26T19:46:30.519Z,22.58
2018-07-26T19:48:59.567Z,22.48
2018-07-26T19:51:28.595Z,22.46
2018-07-26T19:53:57.700Z,22.48
2018-07-26T19:56:26.672Z,22.44
2018-07-26T19:58:55.763Z,22.41
2018-07-26T20:01:25.144Z,22.40
2018-07-26T20:03:54.690Z,22.40
2018-07-26T20:06:23.759Z,22.39
2018-07-26T20:08:52.796Z,22.41
2018-07-26T20:11:21.769Z,22.38
2018-07-26T20:13:50.754Z,22.33
2018-07-26T20:16:19.761Z,22.29
2018-07-26T20:18:48.785Z,22.32
2018-07-26T20:21:17.791Z,22.35
2018-07-26T20:23:46.916Z,22.38
2018-07-26T20:26:16.044Z,22.36
2018-07-26T20:28:45.064Z,22.35
2018-07-26T20:31:14.079Z,22.33
2018-07-26T20:33:43.068Z,22.32
2018-07-26T20:36:12.104Z,22.25
2018-07-26T20:38:41.088Z,22.25
2018-07-26T20:41:10.145Z,22.20
2018-07-26T20:43:39.204Z,22.21
2018-07-26T20:46:08.227Z,22.21
2018-07-26T20:48:37.283Z,22.18
2018-07-26T20:51:06.491Z,22.20
2018-07-26T20:53:35.476Z,22.21
2018-07-26T20:56:04.512Z,22.19
2018-07-26T20:58:33.572Z,22.20
2018-07-26T21:01:02.633Z,22.21
2018-07-26T21:03:31.697Z,22.15
2018-07-26T21:06:00.864Z,22.11
2018-07-26T21:08:30.427Z,22.09
2018-07-26T21:10:59.719Z,22.10
2018-07-26T21:13:28.723Z,22.10
2018-07-26T21:15:57.706Z,22.11
2018-07-26T21:18:26.901Z,22.09
2018-07-26T21:20:55.921Z,22.04
2018-07-26T21:23:25.007Z,22.02
2018-07-26T21:25:54.153Z,22.04
2018-07-26T21:28:23.173Z,22.04
2018-07-26T21:30:52.847Z,22.00
2018-07-26T21:33:21.999Z,21.99
2018-07-26T21:35:51.249Z,21.98
2018-07-26T21:38:20.240Z,21.94
2018-07-26T21:40:49.206Z,21.94
2018-07-26T21:43:18.427Z,21.92
2018-07-26T21:45:47.801Z,21.85
2018-07-26T21:48:16.800Z,21.81
2018-07-26T21:50:45.830Z,21.82
2018-07-26T21:53:14.824Z,21.77
2018-07-26T21:55:43.808Z,21.77
2018-07-26T21:58:12.888Z,21.74
2018-07-26T22:00:56.340Z,21.72
2018-07-26T22:03:25.824Z,21.68
2018-07-26T22:05:54.955Z,21.68
2018-07-26T22:08:23.975Z,21.67
2018-07-26T22:10:53.027Z,21.64
2018-07-26T22:13:22.116Z,21.62
2018-07-26T22:15:52.183Z,21.58
2018-07-26T22:18:21.764Z,21.58
2018-07-26T22:20:50.931Z,21.58
2018-07-26T22:23:19.977Z,21.54
2018-07-26T22:28:18.894Z,21.46
2018-07-26T22:30:48.320Z,21.45
2018-07-26T22:33:17.363Z,21.39
2018-07-26T22:35:46.354Z,21.39
2018-07-26T22:38:15.324Z,21.34
2018-07-26T22:40:44.355Z,21.37
2018-07-26T22:43:13.408Z,21.34
2018-07-26T22:45:42.511Z,21.35
2018-07-26T22:48:11.479Z,21.35
2018-07-26T22:50:40.461Z,21.32
2018-07-26T22:53:09.529Z,21.32
2018-07-26T22:55:38.516Z,21.28
2018-07-26T22:58:07.569Z,21.27
2018-07-26T23:00:36.552Z,21.29
2018-07-26T23:03:05.820Z,21.25
2018-07-26T23:05:34.932Z,21.26
2018-07-26T23:08:03.919Z,21.26
2018-07-26T23:10:32.920Z,21.26
2018-07-26T23:13:01.913Z,21.26
2018-07-26T23:15:30.957Z,21.26
2018-07-26T23:18:00.029Z,21.31
2018-07-26T23:20:29.196Z,21.29
2018-07-26T23:22:58.253Z,21.26
2018-07-26T23:25:27.285Z,21.25
2018-07-26T23:27:56.276Z,21.21
2018-07-26T23:30:25.247Z,21.24
2018-07-26T23:32:54.247Z,21.21
2018-07-26T23:35:23.244Z,21.20
2018-07-26T23:37:52.391Z,21.22
2018-07-26T23:40:21.436Z,21.25
2018-07-26T23:42:50.487Z,21.25
2018-07-26T23:45:19.471Z,21.25
2018-07-26T23:47:48.500Z,21.26
2018-07-26T23:50:17.525Z,21.30
2018-07-26T23:52:46.564Z,21.29
2018-07-26T23:55:15.577Z,21.31
2018-07-26T23:57:44.576Z,21.32
